createdAt,value
2019-04-23T00:01:12.954Z,1.52
2019-04-23T00:03:35.798Z,1.75
2019-04-23T00:06:12.083Z,2.08
2019-04-23T00:08:36.225Z,1.47
2019-04-23T00:11:08.713Z,1.55
2019-04-23T00:13:30.421Z,1.60
2019-04-23T00:16:26.564Z,1.60
2019-04-23T00:21:29.839Z,1.65
2019-04-23T00:24:07.534Z,1.15
2019-04-23T00:26:35.447Z,1.60
2019-04-23T00:28:58.866Z,1.87
2019-04-23T00:31:24.079Z,1.67
2019-04-23T00:33:49.622Z,1.50
2019-04-23T00:36:25.976Z,1.27
2019-04-23T00:38:50.261Z,1.70
2019-04-23T00:41:25.307Z,1.42
2019-04-23T00:43:57.817Z,1.42
2019-04-23T00:46:26.387Z,1.47
2019-04-23T00:51:16.810Z,1.30
2019-04-23T00:54:05.937Z,1.47
2019-04-23T00:58:52.865Z,1.60
2019-04-23T01:01:18.305Z,1.32
2019-04-23T01:03:50.434Z,2.20
2019-04-23T01:06:21.173Z,1.95
2019-04-23T01:08:47.081Z,2.08
2019-04-23T01:11:16.702Z,1.40
2019-04-23T01:16:28.328Z,1.22
2019-04-23T01:18:51.381Z,1.80
2019-04-23T01:21:03.092Z,1.40
2019-04-23T01:23:54.856Z,1.57
2019-04-23T01:26:47.298Z,1.37
2019-04-23T01:29:14.512Z,1.50
2019-04-23T01:31:47.895Z,1.52
2019-04-23T01:34:20.163Z,1.50
2019-04-23T01:36:56.045Z,1.50
2019-04-23T01:39:11.618Z,1.50
2019-04-23T01:42:08.816Z,1.35
2019-04-23T01:44:14.218Z,1.40
2019-04-23T01:46:45.462Z,1.50
2019-04-23T01:49:14.024Z,1.62
2019-04-23T01:54:09.486Z,1.52
2019-04-23T01:56:35.206Z,1.17
2019-04-23T01:59:14.067Z,1.85
2019-04-23T02:01:43.267Z,1.80
2019-04-23T02:04:12.809Z,1.60
2019-04-23T02:06:40.560Z,1.45
2019-04-23T02:09:06.171Z,1.52
2019-04-23T02:11:41.899Z,1.67
2019-04-23T02:14:08.330Z,1.50
2019-04-23T02:16:39.191Z,1.60
2019-04-23T02:19:11.572Z,1.62
2019-04-23T02:21:38.220Z,1.87
2019-04-23T02:24:03.663Z,1.70
2019-04-23T02:26:36.875Z,1.95
2019-04-23T02:31:55.746Z,1.40
2019-04-23T02:34:21.338Z,2.10
2019-04-23T02:36:47.443Z,2.15
2019-04-23T02:39:09.413Z,2.22
2019-04-23T02:41:46.409Z,1.92
2019-04-23T02:46:43.987Z,1.70
2019-04-23T02:49:29.159Z,1.90
2019-04-23T02:51:42.458Z,1.77
2019-04-23T02:54:16.000Z,1.70
2019-04-23T02:56:51.245Z,1.55
2019-04-23T02:59:19.718Z,1.95
2019-04-23T03:01:31.974Z,2.05
2019-04-23T03:04:32.802Z,1.60
2019-04-23T03:06:38.832Z,1.52
2019-04-23T03:09:00.802Z,2.08
2019-04-23T03:14:09.553Z,2.05
2019-04-23T03:22:09.555Z,1.85
2019-04-23T03:27:31.901Z,1.55
2019-04-23T03:30:12.085Z,2.17
2019-04-23T03:40:04.320Z,2.85
2019-04-23T03:42:22.328Z,1.80
2019-04-23T03:44:59.854Z,2.25
2019-04-23T03:47:24.831Z,2.58
2019-04-23T03:49:56.012Z,2.42
2019-04-23T03:54:53.641Z,2.17
2019-04-23T03:57:30.681Z,2.52
2019-04-23T04:09:47.714Z,2.90
2019-04-23T04:12:21.800Z,2.95
2019-04-23T04:27:12.400Z,3.00
2019-04-23T04:30:00.910Z,2.52
2019-04-23T04:32:03.679Z,2.47
2019-04-23T04:35:11.128Z,2.62
2019-04-23T04:42:10.457Z,2.75
2019-04-23T04:47:14.439Z,2.52
2019-04-23T04:52:22.614Z,2.85
2019-04-23T04:54:26.414Z,2.52
2019-04-23T04:57:15.033Z,3.00
2019-04-23T04:59:50.773Z,2.65
2019-04-23T05:05:05.306Z,3.15
2019-04-23T05:07:08.670Z,3.08
2019-04-23T05:12:16.196Z,2.62
2019-04-23T05:14:45.676Z,2.67
2019-04-23T05:17:18.288Z,2.87
2019-04-23T05:24:45.186Z,2.70
2019-04-23T05:27:04.142Z,2.83
2019-04-23T05:29:36.298Z,2.80
2019-04-23T05:32:02.820Z,2.92
2019-04-23T05:37:01.922Z,2.65
2019-04-23T05:39:35.458Z,2.75
2019-04-23T05:42:00.665Z,2.87
2019-04-23T05:44:38.290Z,2.90
2019-04-23T05:47:02.188Z,3.08
2019-04-23T05:49:33.041Z,2.62
2019-04-23T05:56:55.198Z,3.27
2019-04-23T05:59:34.339Z,2.50
2019-04-23T06:04:32.519Z,3.00
2019-04-23T06:07:08.418Z,2.52
2019-04-23T06:09:26.538Z,2.70
2019-04-23T06:11:56.453Z,2.70
2019-04-23T06:14:37.327Z,3.10
2019-04-23T06:16:59.028Z,2.77
2019-04-23T06:19:22.731Z,3.12
2019-04-23T06:24:29.425Z,3.17
2019-04-23T06:34:24.753Z,3.02
2019-04-23T06:36:51.256Z,3.15
2019-04-23T06:39:19.320Z,2.98
2019-04-23T06:41:50.193Z,3.33
2019-04-23T06:44:25.385Z,3.25
2019-04-23T06:46:56.874Z,2.75
2019-04-23T06:49:23.700Z,3.20
2019-04-23T06:52:00.717Z,2.98
2019-04-23T06:54:27.905Z,3.08
2019-04-23T06:57:02.332Z,2.67
2019-04-23T06:59:21.392Z,3.27
2019-04-23T07:01:53.165Z,3.40
2019-04-23T07:04:17.904Z,3.25
2019-04-23T07:06:58.311Z,3.22
2019-04-23T07:09:17.480Z,3.25
2019-04-23T07:11:42.932Z,3.25
2019-04-23T07:14:12.410Z,3.67
2019-04-23T07:16:46.295Z,3.60
2019-04-23T07:19:34.217Z,3.40
2019-04-23T07:21:42.429Z,3.90
2019-04-23T07:29:15.546Z,3.52
2019-04-23T07:34:12.629Z,4.80
2019-04-23T07:36:44.456Z,3.52
2019-04-23T07:45:01.856Z,3.30
2019-04-23T07:53:19.394Z,3.70
2019-04-23T07:55:41.103Z,3.45
2019-04-23T07:58:18.628Z,3.40
2019-04-23T08:03:17.641Z,3.30
2019-04-23T08:08:06.744Z,3.58
2019-04-23T08:13:16.095Z,3.62
2019-04-23T08:15:57.602Z,3.40
2019-04-23T08:18:13.682Z,3.47
2019-04-23T08:20:47.342Z,3.65
2019-04-23T08:23:28.329Z,3.60
2019-04-23T08:26:26.820Z,3.87
2019-04-23T08:28:58.439Z,3.90
2019-04-23T08:31:16.473Z,4.05
2019-04-23T08:33:49.726Z,3.70
2019-04-23T08:36:11.752Z,3.60
2019-04-23T08:38:57.106Z,3.50
2019-04-23T08:41:17.384Z,3.37
2019-04-23T08:46:26.785Z,3.40
2019-04-23T08:53:47.632Z,3.47
2019-04-23T08:56:25.349Z,3.37
2019-04-23T08:58:47.540Z,3.92
2019-04-23T09:01:16.556Z,3.70
2019-04-23T09:03:45.741Z,4.10
2019-04-23T09:06:24.471Z,3.35
2019-04-23T09:08:42.251Z,3.37
2019-04-23T09:11:41.886Z,3.22
2019-04-23T09:16:13.557Z,3.80
2019-04-23T09:19:11.138Z,3.70
2019-04-23T09:21:33.354Z,3.40
2019-04-23T09:24:03.461Z,3.20
2019-04-23T09:26:35.316Z,3.33
2019-04-23T09:29:04.437Z,3.02
2019-04-23T09:35:14.706Z,3.45
2019-04-23T09:38:05.514Z,3.37
2019-04-23T09:41:04.340Z,2.90
2019-04-23T09:43:36.928Z,3.37
2019-04-23T09:46:29.019Z,3.30
2019-04-23T09:49:09.804Z,3.02
2019-04-23T09:51:33.133Z,2.92
2019-04-23T09:54:02.908Z,3.50
2019-04-23T09:56:37.540Z,3.15
2019-04-23T09:59:07.459Z,2.98
2019-04-23T10:03:47.884Z,3.22
2019-04-23T10:06:12.629Z,3.00
2019-04-23T10:08:38.252Z,3.02
2019-04-23T10:11:05.307Z,3.67
2019-04-23T10:13:34.314Z,3.33
2019-04-23T10:16:02.390Z,3.22
2019-04-23T10:18:31.028Z,2.77
2019-04-23T10:20:59.334Z,2.75
2019-04-23T10:23:27.348Z,3.12
2019-04-23T10:25:56.161Z,2.95
2019-04-23T10:28:29.565Z,3.05
2019-04-23T10:30:58.689Z,2.90
2019-04-23T10:33:27.651Z,3.30
2019-04-23T10:36:02.610Z,2.95
2019-04-23T10:38:26.370Z,3.10
2019-04-23T10:40:54.197Z,2.85
2019-04-23T10:43:22.663Z,3.20
2019-04-23T10:46:27.989Z,3.00
2019-04-23T10:52:07.729Z,3.65
2019-04-23T10:56:59.001Z,3.20
2019-04-23T10:59:34.998Z,3.27
2019-04-23T11:02:26.794Z,2.90
2019-04-23T11:04:47.290Z,3.25
2019-04-23T11:12:24.304Z,3.60
2019-04-23T11:14:49.701Z,3.02
2019-04-23T11:17:25.911Z,2.95
2019-04-23T11:19:57.043Z,3.20
2019-04-23T11:27:25.992Z,3.10
2019-04-23T11:38:17.112Z,3.50
2019-04-23T11:39:44.567Z,3.10
2019-04-23T11:42:23.431Z,2.77
2019-04-23T11:44:41.757Z,2.95
2019-04-23T11:47:42.176Z,3.17
2019-04-23T11:52:18.881Z,3.00
2019-04-23T11:54:43.148Z,2.75
2019-04-23T12:02:32.496Z,3.40
2019-04-23T12:05:27.588Z,2.72
2019-04-23T12:08:17.477Z,3.25
2019-04-23T12:11:39.470Z,3.02
2019-04-23T12:14:03.225Z,2.87
2019-04-23T12:16:29.089Z,3.15
2019-04-23T12:19:04.665Z,3.20
2019-04-23T12:21:28.403Z,3.70
2019-04-23T12:24:21.900Z,3.00
2019-04-23T12:26:39.020Z,2.87
2019-04-23T12:31:29.270Z,3.00
2019-04-23T12:36:44.123Z,3.25
2019-04-23T12:39:11.227Z,3.15
2019-04-23T12:41:41.699Z,3.15
2019-04-23T12:44:00.918Z,3.33
2019-04-23T12:46:39.910Z,3.20
2019-04-23T12:49:10.738Z,2.98
2019-04-23T12:52:40.743Z,3.25
2019-04-23T12:53:56.318Z,3.25
2019-04-23T12:56:43.864Z,3.00
2019-04-23T12:58:56.316Z,3.30
2019-04-23T13:01:35.784Z,3.40
2019-04-23T13:03:50.819Z,3.50
2019-04-23T13:06:27.710Z,2.90
2019-04-23T13:09:06.318Z,3.00
2019-04-23T13:11:34.555Z,3.08
2019-04-23T13:13:58.848Z,3.40
2019-04-23T13:19:06.211Z,2.98
2019-04-23T13:21:45.208Z,2.87
2019-04-23T13:24:09.049Z,2.80
2019-04-23T13:26:38.362Z,3.50
2019-04-23T13:29:18.560Z,3.20
2019-04-23T13:31:44.720Z,3.30
2019-04-23T13:34:14.493Z,3.33
2019-04-23T13:39:09.722Z,2.83
2019-04-23T13:41:54.127Z,3.00
2019-04-23T13:44:04.553Z,2.83
2019-04-23T13:46:36.764Z,2.70
2019-04-23T13:49:07.347Z,3.22
2019-04-23T13:51:54.973Z,3.83
2019-04-23T13:54:07.505Z,3.10
2019-04-23T13:56:56.003Z,3.05
2019-04-23T13:59:16.509Z,3.35
2019-04-23T14:04:38.945Z,3.55
2019-04-23T14:07:06.874Z,2.65
2019-04-23T14:12:09.031Z,3.72
2019-04-23T14:15:00.059Z,2.75
2019-04-23T14:17:18.216Z,2.67
2019-04-23T14:19:38.654Z,3.05
2019-04-23T14:22:21.150Z,2.65
2019-04-23T14:24:46.207Z,3.00
2019-04-23T14:27:12.016Z,3.60
2019-04-23T14:29:43.629Z,3.62
2019-04-23T14:32:10.257Z,2.85
2019-04-23T14:34:34.766Z,2.92
2019-04-23T14:39:37.325Z,3.25
2019-04-23T14:42:21.519Z,3.02
2019-04-23T14:44:46.236Z,3.15
2019-04-23T14:47:22.151Z,3.20
2019-04-23T14:49:59.222Z,3.95
2019-04-23T14:52:14.238Z,3.02
2019-04-23T14:55:25.292Z,2.80
2019-04-23T14:59:46.926Z,3.85
2019-04-23T15:02:19.462Z,3.80
2019-04-23T15:04:47.907Z,3.83
2019-04-23T15:07:28.467Z,3.35
2019-04-23T15:09:59.259Z,3.70
2019-04-23T15:12:22.698Z,3.70
2019-04-23T15:14:52.920Z,3.35
2019-04-23T15:17:20.566Z,3.72
2019-04-23T15:20:01.192Z,3.45
2019-04-23T15:22:20.196Z,3.58
2019-04-23T15:24:58.061Z,3.45
2019-04-23T15:29:42.591Z,2.90
2019-04-23T15:32:19.800Z,3.10
2019-04-23T15:34:48.905Z,3.40
2019-04-23T15:37:32.870Z,3.02
2019-04-23T15:39:52.458Z,3.37
2019-04-23T15:42:23.082Z,3.22
2019-04-23T15:44:49.088Z,3.60
2019-04-23T15:47:19.204Z,3.12
2019-04-23T15:49:45.481Z,3.20
2019-04-23T15:52:39.374Z,2.77
2019-04-23T15:54:51.496Z,3.17
2019-04-23T15:57:18.123Z,3.15
2019-04-23T15:59:58.748Z,3.65
2019-04-23T16:01:49.537Z,3.12
2019-04-23T16:04:19.810Z,3.33
2019-04-23T16:06:47.797Z,3.65
2019-04-23T16:09:46.220Z,3.87
2019-04-23T16:12:06.303Z,3.25
2019-04-23T16:14:57.002Z,3.20
2019-04-23T16:17:24.047Z,4.55
2019-04-23T16:20:21.642Z,3.30
2019-04-23T16:22:39.510Z,3.37
2019-04-23T16:25:16.118Z,3.65
2019-04-23T16:27:34.942Z,3.33
2019-04-23T16:33:05.250Z,3.10
2019-04-23T16:38:17.969Z,3.90
2019-04-23T16:40:35.052Z,3.67
2019-04-23T16:43:05.437Z,2.85
2019-04-23T16:45:31.719Z,3.67
2019-04-23T16:48:09.769Z,3.20
2019-04-23T16:50:31.142Z,3.45
2019-04-23T16:52:59.952Z,3.08
2019-04-23T16:55:34.633Z,3.00
2019-04-23T16:58:06.296Z,3.10
2019-04-23T17:03:06.915Z,2.70
2019-04-23T17:05:31.086Z,2.92
2019-04-23T17:08:30.934Z,3.30
2019-04-23T17:10:37.850Z,2.92
2019-04-23T17:13:07.162Z,2.62
2019-04-23T17:15:40.805Z,4.03
2019-04-23T17:18:07.584Z,3.10
2019-04-23T17:20:30.765Z,2.80
2019-04-23T17:23:07.519Z,2.65
2019-04-23T17:25:26.117Z,2.80
2019-04-23T17:28:04.832Z,2.98
2019-04-23T17:30:28.212Z,3.35
2019-04-23T17:33:13.847Z,3.12
2019-04-23T17:36:08.050Z,3.37
2019-04-23T17:38:23.285Z,2.90
2019-04-23T17:40:58.089Z,2.67
2019-04-23T17:43:26.373Z,4.60
2019-04-23T17:45:56.630Z,3.15
2019-04-23T17:48:27.369Z,2.72
2019-04-23T17:51:04.138Z,2.92
2019-04-23T17:56:12.321Z,3.10
2019-04-23T17:58:28.632Z,2.83
2019-04-23T18:01:18.919Z,2.60
2019-04-23T18:03:55.666Z,3.17
2019-04-23T18:06:23.386Z,3.30
2019-04-23T18:08:36.182Z,3.58
2019-04-23T18:11:12.571Z,3.52
2019-04-23T18:13:36.784Z,3.22
2019-04-23T18:16:09.490Z,3.27
2019-04-23T18:21:44.585Z,3.58
2019-04-23T18:24:37.683Z,3.47
2019-04-23T18:32:43.371Z,3.45
2019-04-23T18:37:38.077Z,4.12
2019-04-23T18:40:27.429Z,3.52
2019-04-23T18:42:41.672Z,3.35
2019-04-23T18:45:19.317Z,3.27
2019-04-23T18:47:41.727Z,3.62
2019-04-23T18:50:02.422Z,3.58
2019-04-23T18:52:50.338Z,3.45
2019-04-23T18:55:08.776Z,4.03
2019-04-23T18:57:38.347Z,3.60
2019-04-23T19:00:08.472Z,3.95
2019-04-23T19:03:02.501Z,3.80
2019-04-23T19:05:28.910Z,3.77
2019-04-23T19:08:19.067Z,3.55
2019-04-23T19:11:04.959Z,4.08
2019-04-23T19:13:36.352Z,3.58
2019-04-23T19:15:53.579Z,4.33
2019-04-23T19:18:36.412Z,4.00
2019-04-23T19:26:40.322Z,3.70
2019-04-23T19:34:30.285Z,3.90
2019-04-23T19:36:51.256Z,3.35
2019-04-23T19:39:11.773Z,3.52
2019-04-23T19:41:54.294Z,3.87
2019-04-23T19:46:49.159Z,3.77
2019-04-23T19:51:41.490Z,3.75
2019-04-23T19:56:45.074Z,4.37
2019-04-23T19:59:05.027Z,4.00
2019-04-23T20:01:58.991Z,4.00
2019-04-23T20:03:55.978Z,3.90
2019-04-23T20:06:58.509Z,4.12
2019-04-23T20:11:47.768Z,3.90
2019-04-23T20:14:02.940Z,4.53
2019-04-23T20:19:18.721Z,4.10
2019-04-23T20:24:28.604Z,4.30
2019-04-23T20:26:50.775Z,3.80
2019-04-23T20:31:33.487Z,4.22
2019-04-23T20:35:01.244Z,3.98
2019-04-23T20:37:42.262Z,3.92
2019-04-23T20:42:40.747Z,3.85
2019-04-23T20:47:44.544Z,4.42
2019-04-23T20:52:33.906Z,4.30
2019-04-23T20:57:44.065Z,4.12
2019-04-23T21:00:06.765Z,4.00
2019-04-23T21:07:57.963Z,4.55
2019-04-23T21:10:30.686Z,4.47
2019-04-23T21:13:05.578Z,4.72
2019-04-23T21:15:35.306Z,3.75
2019-04-23T21:22:57.165Z,3.87
2019-04-23T21:25:17.593Z,3.70
2019-04-23T21:28:06.656Z,4.22
2019-04-23T21:33:11.714Z,4.97
2019-04-23T21:44:08.314Z,5.17
2019-04-23T21:46:28.190Z,4.60
2019-04-23T21:53:52.203Z,5.22
2019-04-23T21:56:21.505Z,4.67
2019-04-23T21:58:59.831Z,5.10
2019-04-23T22:01:34.072Z,5.05
2019-04-23T22:06:31.653Z,4.65
2019-04-23T22:09:02.830Z,4.83
2019-04-23T22:11:43.886Z,5.65
2019-04-23T22:16:29.769Z,4.87
2019-04-23T22:19:04.237Z,4.50
2019-04-23T22:21:19.530Z,5.08
2019-04-23T22:23:59.560Z,4.65
2019-04-23T22:26:25.342Z,4.17
2019-04-23T22:28:57.784Z,4.92
2019-04-23T22:31:19.924Z,4.20
2019-04-23T22:33:59.904Z,4.97
2019-04-23T22:36:14.666Z,5.40
2019-04-23T22:38:51.153Z,4.42
2019-04-23T22:41:16.142Z,4.62
2019-04-23T22:43:53.408Z,4.90
2019-04-23T22:46:22.984Z,4.67
2019-04-23T22:49:06.331Z,4.67
2019-04-23T22:51:30.945Z,5.50
2019-04-23T22:54:03.028Z,5.58
2019-04-23T22:56:27.639Z,5.20
2019-04-23T22:59:11.848Z,5.22
2019-04-23T23:01:26.646Z,5.50
2019-04-23T23:04:04.506Z,4.95
2019-04-23T23:06:46.282Z,4.83
2019-04-23T23:09:12.123Z,4.80
2019-04-23T23:11:35.397Z,5.80
2019-04-23T23:16:28.194Z,5.40
2019-04-23T23:19:03.921Z,5.10
2019-04-23T23:21:30.742Z,4.83
2019-04-23T23:23:59.551Z,4.97
2019-04-23T23:26:35.554Z,5.05
2019-04-23T23:28:55.826Z,4.65
2019-04-23T23:31:50.411Z,4.70
2019-04-23T23:36:28.447Z,4.80
2019-04-23T23:39:11.530Z,4.53
2019-04-23T23:41:25.985Z,4.35
2019-04-23T23:44:18.129Z,4.92
2019-04-23T23:46:27.728Z,3.70
2019-04-23T23:51:27.516Z,5.47
2019-04-23T23:53:57.383Z,4.72
2019-04-23T23:58:56.987Z,4.92
